sensor_id;sensor_type;location;lat;lon;timestamp;P1;durP1;ratioP1;P2;durP2;ratioP2
14817;SDS011;7500;57.698;11.986;2023-01-10T00:01:41;18.37;;;6.20;;
14817;SDS011;7500;57.698;11.986;2023-01-10T00:04:08;18.30;;;6.37;;
14817;SDS011;7500;57.698;11.986;2023-01-10T00:06:35;17.97;;;6.80;;
14817;SDS011;7500;57.698;11.986;2023-01-10T00:09:02;23.20;;;7.27;;
14817;SDS011;7500;57.698;11.986;2023-01-10T00:11:29;13.50;;;6.60;;
14817;SDS011;7500;57.698;11.986;2023-01-10T00:14:14;18.63;;;6.40;;
14817;SDS011;7500;57.698;11.986;2023-01-10T00:16:41;16.57;;;6.23;;
14817;SDS011;7500;57.698;11.986;2023-01-10T00:19:08;15.03;;;6.57;;
14817;SDS011;7500;57.698;11.986;2023-01-10T00:21:35;18.00;;;6.20;;
14817;SDS011;7500;57.698;11.986;2023-01-10T00:24:04;22.53;;;6.97;;
14817;SDS011;7500;57.698;11.986;2023-01-10T00:26:41;14.50;;;6.20;;
14817;SDS011;7500;57.698;11.986;2023-01-10T00:29:16;17.17;;;6.50;;
14817;SDS011;7500;57.698;11.986;2023-01-10T00:31:43;21.70;;;7.13;;
14817;SDS011;7500;57.698;11.986;2023-01-10T00:34:10;14.83;;;5.97;;
14817;SDS011;7500;57.698;11.986;2023-01-10T00:36:37;16.37;;;6.83;;
14817;SDS011;7500;57.698;11.986;2023-01-10T00:39:04;20.10;;;6.77;;
14817;SDS011;7500;57.698;11.986;2023-01-10T00:41:36;17.27;;;6.60;;
14817;SDS011;7500;57.698;11.986;2023-01-10T00:44:23;18.90;;;6.10;;
14817;SDS011;7500;57.698;11.986;2023-01-10T00:46:50;16.10;;;6.30;;
14817;SDS011;7500;57.698;11.986;2023-01-10T00:49:17;18.73;;;7.07;;
14817;SDS011;7500;57.698;11.986;2023-01-10T00:51:44;15.37;;;5.87;;
14817;SDS011;7500;57.698;11.986;2023-01-10T00:54:11;18.33;;;6.07;;
14817;SDS011;7500;57.698;11.986;2023-01-10T00:56:39;14.50;;;5.17;;
14817;SDS011;7500;57.698;11.986;2023-01-10T00:59:06;12.37;;;5.73;;
14817;SDS011;7500;57.698;11.986;2023-01-10T01:01:35;14.90;;;5.50;;
14817;SDS011;7500;57.698;11.986;2023-01-10T01:04:02;17.13;;;5.27;;
14817;SDS011;7500;57.698;11.986;2023-01-10T01:06:29;15.73;;;4.47;;
14817;SDS011;7500;57.698;11.986;2023-01-10T01:08:56;13.27;;;4.37;;
14817;SDS011;7500;57.698;11.986;2023-01-10T01:11:23;15.07;;;4.03;;
14817;SDS011;7500;57.698;11.986;2023-01-10T01:13:50;16.63;;;4.37;;
14817;SDS011;7500;57.698;11.986;2023-01-10T01:16:17;12.00;;;4.30;;
14817;SDS011;7500;57.698;11.986;2023-01-10T01:18:45;13.13;;;3.97;;
14817;SDS011;7500;57.698;11.986;2023-01-10T01:21:12;12.33;;;3.80;;
14817;SDS011;7500;57.698;11.986;2023-01-10T01:23:39;13.37;;;3.87;;
14817;SDS011;7500;57.698;11.986;2023-01-10T01:26:06;12.63;;;3.77;;
14817;SDS011;7500;57.698;11.986;2023-01-10T01:28:35;8.70;;;3.53;;
14817;SDS011;7500;57.698;11.986;2023-01-10T01:31:05;10.30;;;3.67;;
14817;SDS011;7500;57.698;11.986;2023-01-10T01:33:33;10.73;;;3.43;;
14817;SDS011;7500;57.698;11.986;2023-01-10T01:36:01;9.17;;;3.30;;
14817;SDS011;7500;57.698;11.986;2023-01-10T01:38:28;14.57;;;4.43;;
14817;SDS011;7500;57.698;11.986;2023-01-10T01:40:55;7.83;;;3.10;;
14817;SDS011;7500;57.698;11.986;2023-01-10T01:43:23;6.73;;;3.13;;
14817;SDS011;7500;57.698;11.986;2023-01-10T01:45:51;14.33;;;3.77;;
14817;SDS011;7500;57.698;11.986;2023-01-10T01:48:23;8.77;;;3.33;;
14817;SDS011;7500;57.698;11.986;2023-01-10T01:50:58;13.40;;;3.33;;
14817;SDS011;7500;57.698;11.986;2023-01-10T01:53:33;9.30;;;3.10;;
14817;SDS011;7500;57.698;11.986;2023-01-10T01:56:06;10.23;;;3.30;;
14817;SDS011;7500;57.698;11.986;2023-01-10T01:58:38;16.00;;;3.80;;
14817;SDS011;7500;57.698;11.986;2023-01-10T02:01:09;10.67;;;3.17;;
14817;SDS011;7500;57.698;11.986;2023-01-10T02:03:38;12.13;;;3.33;;
14817;SDS011;7500;57.698;11.986;2023-01-10T02:06:08;8.20;;;3.47;;
14817;SDS011;7500;57.698;11.986;2023-01-10T02:08:35;10.80;;;3.53;;
14817;SDS011;7500;57.698;11.986;2023-01-10T02:11:07;12.57;;;3.50;;
14817;SDS011;7500;57.698;11.986;2023-01-10T02:13:36;8.10;;;3.40;;
14817;SDS011;7500;57.698;11.986;2023-01-10T02:16:06;13.20;;;3.53;;
14817;SDS011;7500;57.698;11.986;2023-01-10T02:18:33;9.57;;;3.47;;
14817;SDS011;7500;57.698;11.986;2023-01-10T02:21:13;12.30;;;3.20;;
14817;SDS011;7500;57.698;11.986;2023-01-10T02:26:57;13.00;;;2.97;;
14817;SDS011;7500;57.698;11.986;2023-01-10T02:32:43;9.27;;;2.80;;
14817;SDS011;7500;57.698;11.986;2023-01-10T02:35:27;5.90;;;2.70;;
14817;SDS011;7500;57.698;11.986;2023-01-10T02:38:08;7.63;;;2.77;;
14817;SDS011;7500;57.698;11.986;2023-01-10T02:40:44;7.77;;;2.67;;
14817;SDS011;7500;57.698;11.986;2023-01-10T02:43:18;8.17;;;3.17;;
14817;SDS011;7500;57.698;11.986;2023-01-10T02:45:56;7.17;;;2.70;;
14817;SDS011;7500;57.698;11.986;2023-01-10T02:48:27;10.00;;;3.93;;
14817;SDS011;7500;57.698;11.986;2023-01-10T02:50:57;9.40;;;3.00;;
14817;SDS011;7500;57.698;11.986;2023-01-10T02:53:28;10.03;;;3.27;;
14817;SDS011;7500;57.698;11.986;2023-01-10T03:01:52;10.33;;;3.57;;
14817;SDS011;7500;57.698;11.986;2023-01-10T03:04:30;5.97;;;2.97;;
14817;SDS011;7500;57.698;11.986;2023-01-10T03:07:07;8.97;;;3.37;;
14817;SDS011;7500;57.698;11.986;2023-01-10T03:09:44;11.03;;;3.90;;
14817;SDS011;7500;57.698;11.986;2023-01-10T03:12:19;12.37;;;4.30;;
14817;SDS011;7500;57.698;11.986;2023-01-10T03:14:50;8.63;;;3.83;;
14817;SDS011;7500;57.698;11.986;2023-01-10T03:17:20;14.83;;;4.30;;
14817;SDS011;7500;57.698;11.986;2023-01-10T03:19:52;9.47;;;3.63;;
14817;SDS011;7500;57.698;11.986;2023-01-10T03:22:24;12.83;;;4.03;;
14817;SDS011;7500;57.698;11.986;2023-01-10T03:24:52;12.87;;;3.90;;
14817;SDS011;7500;57.698;11.986;2023-01-10T03:27:23;11.63;;;4.00;;
14817;SDS011;7500;57.698;11.986;2023-01-10T03:29:56;7.73;;;4.13;;
14817;SDS011;7500;57.698;11.986;2023-01-10T03:32:27;10.90;;;3.60;;
14817;SDS011;7500;57.698;11.986;2023-01-10T03:34:58;7.53;;;3.83;;
14817;SDS011;7500;57.698;11.986;2023-01-10T03:37:29;13.10;;;4.23;;
14817;SDS011;7500;57.698;11.986;2023-01-10T03:40:05;12.83;;;4.17;;
14817;SDS011;7500;57.698;11.986;2023-01-10T03:42:42;10.03;;;4.00;;
14817;SDS011;7500;57.698;11.986;2023-01-10T03:45:32;11.67;;;4.23;;
14817;SDS011;7500;57.698;11.986;2023-01-10T03:48:06;10.47;;;4.10;;
14817;SDS011;7500;57.698;11.986;2023-01-10T03:50:38;9.70;;;3.77;;
14817;SDS011;7500;57.698;11.986;2023-01-10T03:53:06;8.03;;;3.33;;
14817;SDS011;7500;57.698;11.986;2023-01-10T03:55:33;8.13;;;3.13;;
14817;SDS011;7500;57.698;11.986;2023-01-10T03:58:01;8.83;;;3.20;;
14817;SDS011;7500;57.698;11.986;2023-01-10T04:00:28;10.67;;;3.37;;
14817;SDS011;7500;57.698;11.986;2023-01-10T04:02:55;12.33;;;3.73;;
14817;SDS011;7500;57.698;11.986;2023-01-10T04:05:23;12.00;;;3.83;;
14817;SDS011;7500;57.698;11.986;2023-01-10T04:07:51;9.77;;;3.67;;
14817;SDS011;7500;57.698;11.986;2023-01-10T04:10:18;10.93;;;3.57;;
14817;SDS011;7500;57.698;11.986;2023-01-10T04:12:46;10.30;;;3.80;;
14817;SDS011;7500;57.698;11.986;2023-01-10T04:15:13;11.30;;;4.47;;
14817;SDS011;7500;57.698;11.986;2023-01-10T04:17:40;10.63;;;4.17;;
14817;SDS011;7500;57.698;11.986;2023-01-10T04:20:07;9.83;;;3.90;;
14817;SDS011;7500;57.698;11.986;2023-01-10T04:22:35;9.70;;;4.07;;
14817;SDS011;7500;57.698;11.986;2023-01-10T04:25:04;12.77;;;4.40;;
14817;SDS011;7500;57.698;11.986;2023-01-10T04:27:31;8.83;;;3.70;;
14817;SDS011;7500;57.698;11.986;2023-01-10T04:29:58;7.70;;;3.80;;
14817;SDS011;7500;57.698;11.986;2023-01-10T04:32:25;8.97;;;3.90;;
14817;SDS011;7500;57.698;11.986;2023-01-10T04:34:52;8.20;;;3.57;;
14817;SDS011;7500;57.698;11.986;2023-01-10T04:37:19;9.37;;;3.37;;
14817;SDS011;7500;57.698;11.986;2023-01-10T04:39:46;6.07;;;3.27;;
14817;SDS011;7500;57.698;11.986;2023-01-10T04:42:14;9.10;;;3.33;;
14817;SDS011;7500;57.698;11.986;2023-01-10T04:44:41;8.77;;;3.37;;
14817;SDS011;7500;57.698;11.986;2023-01-10T04:47:08;10.67;;;3.20;;
14817;SDS011;7500;57.698;11.986;2023-01-10T04:49:35;7.07;;;3.07;;
14817;SDS011;7500;57.698;11.986;2023-01-10T04:52:02;6.23;;;2.40;;
14817;SDS011;7500;57.698;11.986;2023-01-10T04:54:29;7.53;;;2.47;;
14817;SDS011;7500;57.698;11.986;2023-01-10T04:56:55;6.40;;;2.57;;
14817;SDS011;7500;57.698;11.986;2023-01-10T04:59:24;6.60;;;2.27;;
14817;SDS011;7500;57.698;11.986;2023-01-10T05:01:51;8.53;;;2.60;;
14817;SDS011;7500;57.698;11.986;2023-01-10T05:04:17;6.77;;;2.30;;
14817;SDS011;7500;57.698;11.986;2023-01-10T05:06:44;4.80;;;2.10;;
14817;SDS011;7500;57.698;11.986;2023-01-10T05:09:11;9.40;;;2.07;;
14817;SDS011;7500;57.698;11.986;2023-01-10T05:11:38;8.00;;;2.13;;
14817;SDS011;7500;57.698;11.986;2023-01-10T05:14:05;10.23;;;2.43;;
14817;SDS011;7500;57.698;11.986;2023-01-10T05:16:33;6.90;;;2.33;;
14817;SDS011;7500;57.698;11.986;2023-01-10T05:19:00;8.93;;;2.20;;
14817;SDS011;7500;57.698;11.986;2023-01-10T05:21:27;5.77;;;2.03;;
14817;SDS011;7500;57.698;11.986;2023-01-10T05:23:54;9.30;;;2.13;;
14817;SDS011;7500;57.698;11.986;2023-01-10T05:26:21;10.37;;;2.57;;
14817;SDS011;7500;57.698;11.986;2023-01-10T05:28:49;9.63;;;2.53;;
14817;SDS011;7500;57.698;11.986;2023-01-10T05:31:17;4.87;;;1.90;;
14817;SDS011;7500;57.698;11.986;2023-01-10T05:33:46;8.00;;;2.33;;
14817;SDS011;7500;57.698;11.986;2023-01-10T05:36:15;5.67;;;2.03;;
14817;SDS011;7500;57.698;11.986;2023-01-10T05:38:43;9.30;;;2.50;;
14817;SDS011;7500;57.698;11.986;2023-01-10T05:41:10;8.73;;;2.23;;
14817;SDS011;7500;57.698;11.986;2023-01-10T05:43:37;7.20;;;1.93;;
14817;SDS011;7500;57.698;11.986;2023-01-10T05:46:04;8.30;;;2.10;;
14817;SDS011;7500;57.698;11.986;2023-01-10T05:48:31;9.02;;;2.78;;
14817;SDS011;7500;57.698;11.986;2023-01-10T05:50:59;7.27;;;2.20;;
14817;SDS011;7500;57.698;11.986;2023-01-10T05:53:26;5.63;;;2.30;;
14817;SDS011;7500;57.698;11.986;2023-01-10T05:55:53;8.40;;;2.50;;
14817;SDS011;7500;57.698;11.986;2023-01-10T05:58:21;10.47;;;2.30;;
14817;SDS011;7500;57.698;11.986;2023-01-10T06:00:48;8.73;;;2.20;;
14817;SDS011;7500;57.698;11.986;2023-01-10T06:03:16;7.23;;;3.40;;
14817;SDS011;7500;57.698;11.986;2023-01-10T06:05:43;6.97;;;2.50;;
14817;SDS011;7500;57.698;11.986;2023-01-10T06:08:11;6.33;;;2.27;;
14817;SDS011;7500;57.698;11.986;2023-01-10T06:10:38;9.43;;;2.40;;
14817;SDS011;7500;57.698;11.986;2023-01-10T06:13:05;7.47;;;2.23;;
14817;SDS011;7500;57.698;11.986;2023-01-10T06:15:34;7.97;;;2.40;;
14817;SDS011;7500;57.698;11.986;2023-01-10T06:18:01;9.00;;;2.20;;
14817;SDS011;7500;57.698;11.986;2023-01-10T06:20:28;10.37;;;2.60;;
14817;SDS011;7500;57.698;11.986;2023-01-10T06:22:55;10.97;;;2.70;;
14817;SDS011;7500;57.698;11.986;2023-01-10T06:25:26;3.10;;;1.70;;
14817;SDS011;7500;57.698;11.986;2023-01-10T06:27:53;7.53;;;2.33;;
14817;SDS011;7500;57.698;11.986;2023-01-10T06:30:20;5.60;;;1.90;;
14817;SDS011;7500;57.698;11.986;2023-01-10T06:32:47;7.30;;;2.10;;
14817;SDS011;7500;57.698;11.986;2023-01-10T06:35:14;7.50;;;2.33;;
14817;SDS011;7500;57.698;11.986;2023-01-10T06:37:42;6.20;;;2.17;;
14817;SDS011;7500;57.698;11.986;2023-01-10T06:40:09;10.40;;;2.17;;
14817;SDS011;7500;57.698;11.986;2023-01-10T06:42:38;6.70;;;2.20;;
14817;SDS011;7500;57.698;11.986;2023-01-10T06:45:05;6.70;;;2.00;;
14817;SDS011;7500;57.698;11.986;2023-01-10T06:47:33;7.70;;;1.80;;
14817;SDS011;7500;57.698;11.986;2023-01-10T06:50:00;7.40;;;1.70;;
14817;SDS011;7500;57.698;11.986;2023-01-10T06:52:27;5.37;;;1.70;;
14817;SDS011;7500;57.698;11.986;2023-01-10T06:54:54;5.00;;;1.70;;
14817;SDS011;7500;57.698;11.986;2023-01-10T06:57:21;6.83;;;2.40;;
14817;SDS011;7500;57.698;11.986;2023-01-10T06:59:49;6.30;;;1.93;;
14817;SDS011;7500;57.698;11.986;2023-01-10T07:02:16;4.90;;;2.03;;
14817;SDS011;7500;57.698;11.986;2023-01-10T07:04:43;9.53;;;2.33;;
14817;SDS011;7500;57.698;11.986;2023-01-10T07:07:10;7.37;;;2.13;;
14817;SDS011;7500;57.698;11.986;2023-01-10T07:09:37;7.10;;;2.00;;
14817;SDS011;7500;57.698;11.986;2023-01-10T07:12:04;6.53;;;2.03;;
14817;SDS011;7500;57.698;11.986;2023-01-10T07:14:31;6.27;;;1.70;;
14817;SDS011;7500;57.698;11.986;2023-01-10T07:16:59;5.13;;;1.90;;
14817;SDS011;7500;57.698;11.986;2023-01-10T07:19:26;8.37;;;1.80;;
14817;SDS011;7500;57.698;11.986;2023-01-10T07:21:53;5.77;;;1.50;;
14817;SDS011;7500;57.698;11.986;2023-01-10T07:24:20;3.40;;;1.43;;
14817;SDS011;7500;57.698;11.986;2023-01-10T07:26:47;9.73;;;3.10;;
14817;SDS011;7500;57.698;11.986;2023-01-10T07:29:13;7.90;;;1.70;;
14817;SDS011;7500;57.698;11.986;2023-01-10T07:31:40;6.50;;;1.80;;
14817;SDS011;7500;57.698;11.986;2023-01-10T07:34:08;6.13;;;1.60;;
14817;SDS011;7500;57.698;11.986;2023-01-10T07:36:35;7.73;;;1.43;;
14817;SDS011;7500;57.698;11.986;2023-01-10T07:39:02;4.70;;;1.37;;
14817;SDS011;7500;57.698;11.986;2023-01-10T07:41:29;3.30;;;1.20;;
14817;SDS011;7500;57.698;11.986;2023-01-10T07:43:56;4.93;;;1.70;;
14817;SDS011;7500;57.698;11.986;2023-01-10T07:46:23;4.50;;;1.40;;
14817;SDS011;7500;57.698;11.986;2023-01-10T07:48:50;6.83;;;1.70;;
14817;SDS011;7500;57.698;11.986;2023-01-10T07:51:18;6.60;;;1.60;;
14817;SDS011;7500;57.698;11.986;2023-01-10T07:53:45;4.57;;;1.70;;
14817;SDS011;7500;57.698;11.986;2023-01-10T07:56:12;7.13;;;1.90;;
14817;SDS011;7500;57.698;11.986;2023-01-10T07:58:39;5.70;;;2.07;;
14817;SDS011;7500;57.698;11.986;2023-01-10T08:01:06;6.80;;;1.43;;
14817;SDS011;7500;57.698;11.986;2023-01-10T08:03:33;7.47;;;1.87;;
14817;SDS011;7500;57.698;11.986;2023-01-10T08:06:01;6.23;;;1.60;;
14817;SDS011;7500;57.698;11.986;2023-01-10T08:08:31;7.60;;;1.60;;
14817;SDS011;7500;57.698;11.986;2023-01-10T08:10:58;7.83;;;1.77;;
14817;SDS011;7500;57.698;11.986;2023-01-10T08:13:26;6.77;;;1.80;;
14817;SDS011;7500;57.698;11.986;2023-01-10T08:15:53;5.97;;;1.53;;
14817;SDS011;7500;57.698;11.986;2023-01-10T08:18:21;5.10;;;1.90;;
14817;SDS011;7500;57.698;11.986;2023-01-10T08:20:49;6.87;;;1.73;;
14817;SDS011;7500;57.698;11.986;2023-01-10T08:23:16;7.37;;;1.83;;
14817;SDS011;7500;57.698;11.986;2023-01-10T08:25:45;6.70;;;2.40;;
14817;SDS011;7500;57.698;11.986;2023-01-10T08:28:11;7.93;;;1.70;;
14817;SDS011;7500;57.698;11.986;2023-01-10T08:30:39;7.67;;;1.60;;
14817;SDS011;7500;57.698;11.986;2023-01-10T08:33:06;6.40;;;1.67;;
14817;SDS011;7500;57.698;11.986;2023-01-10T08:35:37;5.97;;;1.90;;
14817;SDS011;7500;57.698;11.986;2023-01-10T08:38:04;7.60;;;2.10;;
14817;SDS011;7500;57.698;11.986;2023-01-10T08:40:32;5.67;;;1.80;;
14817;SDS011;7500;57.698;11.986;2023-01-10T08:43:00;11.37;;;1.83;;
14817;SDS011;7500;57.698;11.986;2023-01-10T08:45:28;3.90;;;1.33;;
14817;SDS011;7500;57.698;11.986;2023-01-10T08:47:55;8.60;;;1.80;;
14817;SDS011;7500;57.698;11.986;2023-01-10T08:50:23;4.73;;;1.40;;
14817;SDS011;7500;57.698;11.986;2023-01-10T08:52:50;9.60;;;1.70;;
14817;SDS011;7500;57.698;11.986;2023-01-10T08:55:17;5.10;;;1.73;;
14817;SDS011;7500;57.698;11.986;2023-01-10T08:57:45;9.53;;;1.67;;
14817;SDS011;7500;57.698;11.986;2023-01-10T09:00:13;6.10;;;1.73;;
14817;SDS011;7500;57.698;11.986;2023-01-10T09:02:41;6.60;;;2.13;;
14817;SDS011;7500;57.698;11.986;2023-01-10T09:05:08;8.83;;;2.20;;
14817;SDS011;7500;57.698;11.986;2023-01-10T09:07:35;5.97;;;1.67;;
14817;SDS011;7500;57.698;11.986;2023-01-10T09:10:02;9.80;;;1.97;;
14817;SDS011;7500;57.698;11.986;2023-01-10T09:12:30;9.90;;;1.97;;
14817;SDS011;7500;57.698;11.986;2023-01-10T09:15:16;7.53;;;2.27;;
14817;SDS011;7500;57.698;11.986;2023-01-10T09:17:42;5.53;;;1.67;;
14817;SDS011;7500;57.698;11.986;2023-01-10T09:20:10;4.87;;;1.80;;
14817;SDS011;7500;57.698;11.986;2023-01-10T09:22:37;8.63;;;1.83;;
14817;SDS011;7500;57.698;11.986;2023-01-10T09:25:05;3.83;;;2.00;;
14817;SDS011;7500;57.698;11.986;2023-01-10T09:27:32;5.30;;;1.87;;
14817;SDS011;7500;57.698;11.986;2023-01-10T09:29:59;6.43;;;1.83;;
14817;SDS011;7500;57.698;11.986;2023-01-10T09:32:28;5.53;;;1.87;;
14817;SDS011;7500;57.698;11.986;2023-01-10T09:34:54;7.00;;;2.27;;
14817;SDS011;7500;57.698;11.986;2023-01-10T09:37:21;6.30;;;1.60;;
14817;SDS011;7500;57.698;11.986;2023-01-10T09:39:48;4.27;;;1.70;;
14817;SDS011;7500;57.698;11.986;2023-01-10T09:42:28;6.43;;;1.50;;
14817;SDS011;7500;57.698;11.986;2023-01-10T09:45:05;4.77;;;1.27;;
14817;SDS011;7500;57.698;11.986;2023-01-10T09:47:43;4.60;;;1.40;;
14817;SDS011;7500;57.698;11.986;2023-01-10T09:50:19;8.10;;;1.80;;
14817;SDS011;7500;57.698;11.986;2023-01-10T09:52:54;5.20;;;1.33;;
14817;SDS011;7500;57.698;11.986;2023-01-10T09:55:28;7.87;;;1.47;;
14817;SDS011;7500;57.698;11.986;2023-01-10T09:57:57;3.87;;;1.40;;
14817;SDS011;7500;57.698;11.986;2023-01-10T10:00:28;5.43;;;1.73;;
14817;SDS011;7500;57.698;11.986;2023-01-10T10:03:02;5.10;;;1.53;;
14817;SDS011;7500;57.698;11.986;2023-01-10T10:05:36;5.40;;;1.57;;
14817;SDS011;7500;57.698;11.986;2023-01-10T10:08:04;4.90;;;1.73;;
14817;SDS011;7500;57.698;11.986;2023-01-10T10:10:42;10.33;;;1.90;;
14817;SDS011;7500;57.698;11.986;2023-01-10T10:13:17;6.40;;;1.70;;
14817;SDS011;7500;57.698;11.986;2023-01-10T10:15:48;5.77;;;1.53;;
14817;SDS011;7500;57.698;11.986;2023-01-10T10:18:23;5.47;;;1.27;;
14817;SDS011;7500;57.698;11.986;2023-01-10T10:21:02;7.70;;;1.73;;
14817;SDS011;7500;57.698;11.986;2023-01-10T10:26:37;6.60;;;1.80;;
14817;SDS011;7500;57.698;11.986;2023-01-10T10:29:27;9.10;;;1.57;;
14817;SDS011;7500;57.698;11.986;2023-01-10T10:35:06;8.63;;;1.83;;
14817;SDS011;7500;57.698;11.986;2023-01-10T10:37:38;7.13;;;1.83;;
14817;SDS011;7500;57.698;11.986;2023-01-10T10:40:14;7.47;;;1.67;;
14817;SDS011;7500;57.698;11.986;2023-01-10T10:42:44;9.37;;;1.90;;
14817;SDS011;7500;57.698;11.986;2023-01-10T10:45:14;7.10;;;1.67;;
14817;SDS011;7500;57.698;11.986;2023-01-10T10:47:46;5.37;;;1.90;;
14817;SDS011;7500;57.698;11.986;2023-01-10T10:50:22;10.53;;;2.13;;
14817;SDS011;7500;57.698;11.986;2023-01-10T10:52:54;10.90;;;2.20;;
14817;SDS011;7500;57.698;11.986;2023-01-10T10:55:24;9.57;;;2.00;;
14817;SDS011;7500;57.698;11.986;2023-01-10T10:57:55;10.23;;;2.57;;
14817;SDS011;7500;57.698;11.986;2023-01-10T11:00:22;11.47;;;2.00;;
14817;SDS011;7500;57.698;11.986;2023-01-10T11:02:52;9.67;;;2.30;;
14817;SDS011;7500;57.698;11.986;2023-01-10T11:05:26;11.07;;;2.30;;
14817;SDS011;7500;57.698;11.986;2023-01-10T11:07:59;9.70;;;2.07;;
14817;SDS011;7500;57.698;11.986;2023-01-10T11:10:31;7.00;;;1.80;;
14817;SDS011;7500;57.698;11.986;2023-01-10T11:13:04;10.37;;;2.47;;
14817;SDS011;7500;57.698;11.986;2023-01-10T11:15:39;9.50;;;2.43;;
14817;SDS011;7500;57.698;11.986;2023-01-10T11:18:10;9.87;;;2.53;;
14817;SDS011;7500;57.698;11.986;2023-01-10T11:20:46;8.47;;;1.93;;
14817;SDS011;7500;57.698;11.986;2023-01-10T11:23:22;14.27;;;2.93;;
14817;SDS011;7500;57.698;11.986;2023-01-10T11:25:53;9.57;;;2.30;;
14817;SDS011;7500;57.698;11.986;2023-01-10T11:28:21;9.90;;;1.93;;
14817;SDS011;7500;57.698;11.986;2023-01-10T11:30:54;10.17;;;2.57;;
14817;SDS011;7500;57.698;11.986;2023-01-10T11:33:25;11.07;;;2.23;;
14817;SDS011;7500;57.698;11.986;2023-01-10T11:35:59;10.40;;;2.23;;
14817;SDS011;7500;57.698;11.986;2023-01-10T11:38:28;9.70;;;2.53;;
14817;SDS011;7500;57.698;11.986;2023-01-10T11:40:56;11.57;;;2.50;;
14817;SDS011;7500;57.698;11.986;2023-01-10T11:43:26;10.53;;;2.67;;
14817;SDS011;7500;57.698;11.986;2023-01-10T11:45:56;7.60;;;2.23;;
14817;SDS011;7500;57.698;11.986;2023-01-10T11:48:27;10.43;;;2.63;;
14817;SDS011;7500;57.698;11.986;2023-01-10T11:51:14;11.80;;;2.50;;
14817;SDS011;7500;57.698;11.986;2023-01-10T11:53:44;17.27;;;2.60;;
14817;SDS011;7500;57.698;11.986;2023-01-10T11:56:12;8.53;;;2.70;;
14817;SDS011;7500;57.698;11.986;2023-01-10T11:58:47;9.83;;;2.37;;
14817;SDS011;7500;57.698;11.986;2023-01-10T12:01:24;15.17;;;3.00;;
14817;SDS011;7500;57.698;11.986;2023-01-10T12:03:58;14.10;;;2.87;;
14817;SDS011;7500;57.698;11.986;2023-01-10T12:06:26;11.83;;;2.70;;
14817;SDS011;7500;57.698;11.986;2023-01-10T12:08:54;12.77;;;2.50;;
14817;SDS011;7500;57.698;11.986;2023-01-10T12:11:24;16.83;;;2.77;;
14817;SDS011;7500;57.698;11.986;2023-01-10T12:13:54;16.60;;;2.77;;
14817;SDS011;7500;57.698;11.986;2023-01-10T12:16:23;12.17;;;2.37;;
14817;SDS011;7500;57.698;11.986;2023-01-10T12:18:52;11.37;;;2.97;;
14817;SDS011;7500;57.698;11.986;2023-01-10T12:21:24;16.87;;;3.27;;
14817;SDS011;7500;57.698;11.986;2023-01-10T12:23:56;15.33;;;2.77;;
14817;SDS011;7500;57.698;11.986;2023-01-10T12:26:28;8.40;;;2.53;;
14817;SDS011;7500;57.698;11.986;2023-01-10T12:28:58;7.87;;;2.63;;
14817;SDS011;7500;57.698;11.986;2023-01-10T12:31:32;10.07;;;2.20;;
14817;SDS011;7500;57.698;11.986;2023-01-10T12:34:03;13.33;;;2.47;;
14817;SDS011;7500;57.698;11.986;2023-01-10T12:36:42;10.80;;;2.73;;
14817;SDS011;7500;57.698;11.986;2023-01-10T12:39:18;13.67;;;2.80;;
14817;SDS011;7500;57.698;11.986;2023-01-10T12:41:52;12.93;;;2.80;;
14817;SDS011;7500;57.698;11.986;2023-01-10T12:44:46;13.33;;;3.07;;
14817;SDS011;7500;57.698;11.986;2023-01-10T12:47:18;13.23;;;3.10;;
14817;SDS011;7500;57.698;11.986;2023-01-10T12:49:56;9.13;;;2.57;;
14817;SDS011;7500;57.698;11.986;2023-01-10T12:52:32;19.57;;;3.23;;
14817;SDS011;7500;57.698;11.986;2023-01-10T12:55:11;15.67;;;3.23;;
14817;SDS011;7500;57.698;11.986;2023-01-10T12:57:39;24.90;;;4.47;;
14817;SDS011;7500;57.698;11.986;2023-01-10T13:00:14;15.27;;;3.60;;
14817;SDS011;7500;57.698;11.986;2023-01-10T13:02:48;15.13;;;3.60;;
14817;SDS011;7500;57.698;11.986;2023-01-10T13:05:19;16.77;;;3.60;;
14817;SDS011;7500;57.698;11.986;2023-01-10T13:07:49;14.30;;;3.20;;
14817;SDS011;7500;57.698;11.986;2023-01-10T13:10:20;10.37;;;2.70;;
14817;SDS011;7500;57.698;11.986;2023-01-10T13:12:49;17.83;;;3.20;;
14817;SDS011;7500;57.698;11.986;2023-01-10T13:15:23;16.77;;;3.40;;
14817;SDS011;7500;57.698;11.986;2023-01-10T13:17:55;15.37;;;3.07;;
14817;SDS011;7500;57.698;11.986;2023-01-10T13:20:27;26.23;;;4.53;;
14817;SDS011;7500;57.698;11.986;2023-01-10T13:23:13;23.10;;;3.23;;
14817;SDS011;7500;57.698;11.986;2023-01-10T13:25:54;14.50;;;3.23;;
14817;SDS011;7500;57.698;11.986;2023-01-10T13:28:23;16.70;;;3.53;;
14817;SDS011;7500;57.698;11.986;2023-01-10T13:30:52;16.97;;;3.20;;
14817;SDS011;7500;57.698;11.986;2023-01-10T13:33:21;16.43;;;3.27;;
14817;SDS011;7500;57.698;11.986;2023-01-10T13:35:50;15.37;;;3.20;;
14817;SDS011;7500;57.698;11.986;2023-01-10T13:38:22;25.83;;;3.90;;
14817;SDS011;7500;57.698;11.986;2023-01-10T13:40:56;19.40;;;2.80;;
14817;SDS011;7500;57.698;11.986;2023-01-10T13:43:31;17.53;;;2.87;;
14817;SDS011;7500;57.698;11.986;2023-01-10T13:57:53;12.27;;;2.97;;
14817;SDS011;7500;57.698;11.986;2023-01-10T14:00:22;22.00;;;3.27;;
14817;SDS011;7500;57.698;11.986;2023-01-10T14:06:02;20.13;;;3.37;;
14817;SDS011;7500;57.698;11.986;2023-01-10T14:08:34;13.57;;;2.73;;
14817;SDS011;7500;57.698;11.986;2023-01-10T14:11:07;13.00;;;2.53;;
14817;SDS011;7500;57.698;11.986;2023-01-10T14:13:36;20.33;;;2.90;;
14817;SDS011;7500;57.698;11.986;2023-01-10T14:16:25;13.37;;;2.47;;
14817;SDS011;7500;57.698;11.986;2023-01-10T14:18:54;18.83;;;3.90;;
14817;SDS011;7500;57.698;11.986;2023-01-10T14:21:22;11.83;;;2.73;;
14817;SDS011;7500;57.698;11.986;2023-01-10T14:23:51;21.00;;;3.30;;
14817;SDS011;7500;57.698;11.986;2023-01-10T14:26:23;20.53;;;2.50;;
14817;SDS011;7500;57.698;11.986;2023-01-10T14:28:55;17.50;;;3.57;;
14817;SDS011;7500;57.698;11.986;2023-01-10T14:31:24;16.27;;;3.70;;
14817;SDS011;7500;57.698;11.986;2023-01-10T14:33:52;22.83;;;3.23;;
14817;SDS011;7500;57.698;11.986;2023-01-10T14:36:21;22.30;;;3.90;;
14817;SDS011;7500;57.698;11.986;2023-01-10T14:38:52;15.83;;;3.30;;
14817;SDS011;7500;57.698;11.986;2023-01-10T14:41:26;17.23;;;3.40;;
14817;SDS011;7500;57.698;11.986;2023-01-10T14:43:59;19.63;;;3.20;;
14817;SDS011;7500;57.698;11.986;2023-01-10T14:46:28;17.60;;;3.20;;
14817;SDS011;7500;57.698;11.986;2023-01-10T14:49:00;21.47;;;3.33;;
14817;SDS011;7500;57.698;11.986;2023-01-10T14:51:27;18.20;;;3.67;;
14817;SDS011;7500;57.698;11.986;2023-01-10T14:53:55;20.43;;;3.63;;
14817;SDS011;7500;57.698;11.986;2023-01-10T14:56:27;21.60;;;4.00;;
14817;SDS011;7500;57.698;11.986;2023-01-10T14:58:55;24.13;;;4.40;;
14817;SDS011;7500;57.698;11.986;2023-01-10T15:01:23;15.53;;;3.17;;
14817;SDS011;7500;57.698;11.986;2023-01-10T15:03:52;13.27;;;2.93;;
14817;SDS011;7500;57.698;11.986;2023-01-10T15:06:21;16.43;;;3.53;;
14817;SDS011;7500;57.698;11.986;2023-01-10T15:08:57;21.77;;;4.07;;
14817;SDS011;7500;57.698;11.986;2023-01-10T15:11:29;19.20;;;3.30;;
14817;SDS011;7500;57.698;11.986;2023-01-10T15:13:59;22.63;;;3.80;;
14817;SDS011;7500;57.698;11.986;2023-01-10T15:16:31;20.83;;;3.83;;
14817;SDS011;7500;57.698;11.986;2023-01-10T15:19:01;27.23;;;4.30;;
14817;SDS011;7500;57.698;11.986;2023-01-10T15:21:28;16.27;;;3.40;;
14817;SDS011;7500;57.698;11.986;2023-01-10T15:23:56;20.20;;;3.63;;
14817;SDS011;7500;57.698;11.986;2023-01-10T15:26:25;17.70;;;3.10;;
14817;SDS011;7500;57.698;11.986;2023-01-10T15:29:08;19.27;;;3.00;;
14817;SDS011;7500;57.698;11.986;2023-01-10T15:31:38;16.73;;;3.13;;